Hong Kong, Hong Kong

11:55 AM HKT on November 28, 2014 (GMT +0800)
Tai O, Lantau Island | Change Station
CLOSE
Current Station
Personal Weather Stations
Location: Hong Kong, HKSAR
Elevation: 50 ft
Nearby Weather Stations

Elev 50 ft 22.25 °N, 113.87 °E | Updated 4 minutes ago

Partly Cloudy
Mendung Sebagian
75.2 °F
Feels Like 75 °F
N
0.0
Angin Variable Angin from Dari Utara ke Timurlaut
Gusts 0.0 mph

Siang Ini
High -- | Low -- °F
--% Chance of Precip.
Yesterday
High -- | Low -- °F
Precip. -- Inch
6:44 AM 5:39 PM
Waxing Crescent, 36% visible
Tekanan 29.98 Inch
Jarak Pandang 6.2 Mil
Awan Few 1200 ft
Ideks Panas 75 °F
Titik Embun 71 °F
Kelembaban 86%
Rainfall 0.00 Inch
Snow Depth Not available.
UV 3.4 out of 12
Pollen Not available.
Air Quality Not available.
Flu Activity Not available.
METAR VHHH 280330Z 09011KT 9999 FEW012 27/20 Q1015 NOSIG

More Conditions Fewer Conditions

Tekanan 29.98 Inch
Jarak Pandang 6.2 Mil
Awan Few 1200 ft
Ideks Panas 75 °F
Titik Embun 71 °F
Kelembaban 86%
Rainfall 0.00 Inch
Snow Depth Not available.
UV 3.4 out of 12
Pollen Not available.
Air Quality Not available.
Flu Activity Not available.
METAR VHHH 280330Z 09011KT 9999 FEW012 27/20 Q1015 NOSIG

More Conditions Fewer Conditions

10-Day Weather Forecast

Almanac

Astronomi

Nov. 28, 2014 Rise Set
Actual Time
Civil Twilight
Nautical Twilight
Astronomical Twilight
Moon
Length Of Visible Light
Lama Satu Hari
Tomorrow will be .
, % of the Moon is Illuminated

Today's Extremes

Country Highs Country Lows

Community

WunderPhotos

Upload Photos

1,774,169 photos uploaded!

WunderBlogs® & News

Nearby

Air Quality

  Air Quality AQ Index Pollutant
Not available.

Snow Depth

Station Depth Elevation

Earthquake Activity

City Distance Mag. Time & Date
Minimum magnitude displayed is 2.5.

Coastal Water Temperatures

Lokasi Temperatur

Nearby Weather Stations